createdAt,value
2023-06-28T00:02:35.907Z,12.30
2023-06-28T00:05:21.348Z,14.02
2023-06-28T00:08:06.715Z,12.50
2023-06-28T00:10:52.215Z,10.43
2023-06-28T00:13:37.745Z,11.48
2023-06-28T00:16:23.148Z,13.15
2023-06-28T00:19:08.374Z,12.48
2023-06-28T00:21:55.340Z,9.98
2023-06-28T00:24:40.595Z,12.25
2023-06-28T00:27:26.480Z,13.63
2023-06-28T00:30:12.296Z,11.05
2023-06-28T00:33:00.017Z,12.57
2023-06-28T00:35:45.095Z,17.75
2023-06-28T00:38:30.442Z,11.70
2023-06-28T00:41:15.453Z,13.32
2023-06-28T00:44:01.030Z,12.77
2023-06-28T00:46:46.726Z,19.25
2023-06-28T00:49:35.831Z,15.00
2023-06-28T00:52:21.561Z,15.25
2023-06-28T00:55:07.173Z,11.98
2023-06-28T00:57:52.706Z,12.68
2023-06-28T01:00:37.979Z,12.23
2023-06-28T01:03:23.457Z,12.57
2023-06-28T01:06:10.502Z,14.40
2023-06-28T01:08:55.680Z,15.68
2023-06-28T01:11:41.567Z,14.43
2023-06-28T01:14:26.704Z,11.77
2023-06-28T01:17:12.504Z,15.27
2023-06-28T01:19:57.491Z,14.23
2023-06-28T01:22:51.795Z,15.13
2023-06-28T01:25:37.306Z,13.35
2023-06-28T01:28:23.521Z,15.40
2023-06-28T01:31:08.948Z,15.32
2023-06-28T01:33:54.367Z,15.75
2023-06-28T01:36:39.885Z,13.52
2023-06-28T01:39:26.530Z,12.85
2023-06-28T01:42:11.962Z,15.30
2023-06-28T01:44:57.241Z,11.95
2023-06-28T01:47:42.891Z,13.30
2023-06-28T01:50:29.550Z,17.08
2023-06-28T01:53:15.995Z,17.33
2023-06-28T01:56:01.495Z,15.35
2023-06-28T01:58:47.013Z,15.23
2023-06-28T02:01:32.010Z,16.58
2023-06-28T02:04:17.660Z,16.52
2023-06-28T02:07:02.843Z,16.45
2023-06-28T02:09:48.204Z,17.13
2023-06-28T02:12:33.607Z,13.57
2023-06-28T02:15:19.545Z,13.98
2023-06-28T02:18:05.267Z,12.20
2023-06-28T02:20:51.100Z,11.57
2023-06-28T02:23:36.559Z,14.85
2023-06-28T02:26:21.747Z,14.57
2023-06-28T02:29:07.234Z,14.20
2023-06-28T02:31:52.228Z,16.33
2023-06-28T02:34:37.499Z,13.88
2023-06-28T02:37:22.765Z,15.20
2023-06-28T02:40:08.829Z,15.82
2023-06-28T02:42:54.181Z,15.00
2023-06-28T02:45:39.637Z,15.50
2023-06-28T02:48:24.770Z,16.83
2023-06-28T02:51:10.133Z,17.08
2023-06-28T02:53:55.370Z,17.23
2023-06-28T02:56:40.335Z,17.25
2023-06-28T02:59:25.801Z,15.27
2023-06-28T03:02:11.203Z,16.08
2023-06-28T03:04:56.661Z,16.90
2023-06-28T03:07:42.145Z,15.07
2023-06-28T03:10:27.371Z,16.75
2023-06-28T03:13:12.615Z,15.48
2023-06-28T03:15:57.996Z,17.17
2023-06-28T03:18:43.329Z,15.80
2023-06-28T03:21:28.537Z,14.73
2023-06-28T03:24:13.992Z,17.35
2023-06-28T03:26:59.271Z,13.82
2023-06-28T03:29:44.662Z,16.73
2023-06-28T03:32:30.002Z,15.32
2023-06-28T03:35:15.541Z,14.10
2023-06-28T03:38:00.911Z,14.02
2023-06-28T03:40:46.108Z,17.13
2023-06-28T03:43:31.603Z,13.77
2023-06-28T03:46:17.286Z,17.30
2023-06-28T03:49:02.920Z,16.92
2023-06-28T03:51:48.497Z,16.00
2023-06-28T03:54:33.775Z,13.57
2023-06-28T03:57:19.584Z,18.33
2023-06-28T04:00:06.192Z,16.90
2023-06-28T04:02:51.656Z,16.80
2023-06-28T04:05:36.875Z,17.15
2023-06-28T04:08:22.108Z,16.55
2023-06-28T04:11:07.451Z,17.77
2023-06-28T04:13:52.742Z,18.13
2023-06-28T04:16:38.428Z,17.02
2023-06-28T04:19:23.845Z,19.33
2023-06-28T04:22:09.538Z,16.25
2023-06-28T04:24:55.061Z,18.85
2023-06-28T04:27:40.379Z,15.63
2023-06-28T04:30:25.716Z,21.25
2023-06-28T04:33:10.998Z,17.33
2023-06-28T04:35:57.406Z,18.48
2023-06-28T04:38:42.980Z,15.73
2023-06-28T04:41:28.873Z,19.38
2023-06-28T04:44:14.410Z,19.75
2023-06-28T04:46:59.606Z,21.17
2023-06-28T04:49:50.587Z,21.50
2023-06-28T04:52:36.208Z,17.83
2023-06-28T04:55:21.629Z,17.45
2023-06-28T04:58:07.179Z,20.90
2023-06-28T05:00:53.132Z,18.83
2023-06-28T05:03:38.903Z,20.50
2023-06-28T05:06:23.919Z,17.73
2023-06-28T05:09:09.345Z,18.50
2023-06-28T05:11:54.826Z,19.85
2023-06-28T05:14:39.900Z,18.83
2023-06-28T05:17:25.115Z,22.88
2023-06-28T05:20:12.981Z,18.63
2023-06-28T05:23:18.760Z,16.98
2023-06-28T05:26:04.046Z,19.60
2023-06-28T05:28:49.351Z,18.20
2023-06-28T05:31:37.914Z,16.27
2023-06-28T05:34:23.367Z,17.10
2023-06-28T05:37:08.641Z,19.33
2023-06-28T05:39:54.355Z,16.05
2023-06-28T05:42:39.566Z,16.30
2023-06-28T05:45:29.308Z,20.90
2023-06-28T05:48:15.103Z,19.38
2023-06-28T05:51:00.542Z,18.02
2023-06-28T05:53:45.895Z,17.23
2023-06-28T05:56:31.179Z,14.90
2023-06-28T05:59:16.430Z,19.05
2023-06-28T06:02:02.118Z,15.75
2023-06-28T06:04:47.246Z,17.98
2023-06-28T06:07:32.804Z,16.58
2023-06-28T06:10:18.011Z,19.10
2023-06-28T06:13:03.635Z,18.40
2023-06-28T06:15:48.829Z,17.90
2023-06-28T06:18:34.103Z,18.77
2023-06-28T06:21:19.491Z,17.58
2023-06-28T06:24:05.358Z,20.40
2023-06-28T06:26:50.854Z,18.60
2023-06-28T06:29:36.118Z,17.58
2023-06-28T06:32:21.511Z,18.55
2023-06-28T06:35:07.612Z,16.50
2023-06-28T06:37:52.900Z,20.95
2023-06-28T06:40:38.310Z,18.95
2023-06-28T06:43:23.768Z,15.02
2023-06-28T06:46:09.729Z,17.70
2023-06-28T06:48:55.116Z,22.58
2023-06-28T06:51:40.267Z,19.65
2023-06-28T06:54:25.543Z,17.48
2023-06-28T06:57:10.927Z,16.52
2023-06-28T06:59:56.399Z,15.82
2023-06-28T07:02:41.893Z,17.88
2023-06-28T07:05:27.214Z,15.75
2023-06-28T07:08:12.612Z,20.17
2023-06-28T07:10:57.993Z,16.38
2023-06-28T07:13:43.417Z,18.52
2023-06-28T07:16:28.685Z,18.10
2023-06-28T07:19:15.472Z,19.38
2023-06-28T07:22:01.138Z,20.48
2023-06-28T07:24:46.439Z,18.38
2023-06-28T07:27:31.965Z,17.67
2023-06-28T07:30:17.754Z,18.67
2023-06-28T07:33:05.706Z,16.50
2023-06-28T07:35:52.457Z,20.02
2023-06-28T07:38:38.145Z,16.33
2023-06-28T07:41:23.189Z,13.93
2023-06-28T07:44:08.605Z,15.70
2023-06-28T07:46:53.865Z,17.92
2023-06-28T07:49:39.343Z,18.25
2023-06-28T07:52:24.711Z,15.48
2023-06-28T07:55:10.200Z,15.05
2023-06-28T07:57:56.272Z,16.73
2023-06-28T08:00:41.593Z,14.13
2023-06-28T08:03:27.475Z,17.42
2023-06-28T08:06:13.491Z,18.92
2023-06-28T08:08:59.372Z,13.88
2023-06-28T08:11:44.738Z,13.48
2023-06-28T08:14:29.958Z,15.55
2023-06-28T08:17:15.427Z,37.33
2023-06-28T08:20:00.701Z,14.43
2023-06-28T08:22:46.097Z,15.35
2023-06-28T08:25:31.415Z,19.17
2023-06-28T08:28:16.753Z,20.73
2023-06-28T08:31:02.431Z,17.55
2023-06-28T08:33:48.897Z,16.00
2023-06-28T08:36:34.348Z,14.27
2023-06-28T08:39:19.868Z,15.35
2023-06-28T08:42:05.849Z,16.25
2023-06-28T08:44:54.822Z,18.38
2023-06-28T08:47:41.143Z,16.38
2023-06-28T08:50:27.118Z,18.08
2023-06-28T08:53:16.532Z,13.30
2023-06-28T08:56:02.753Z,14.43
2023-06-28T08:58:49.909Z,15.85
2023-06-28T09:01:36.757Z,14.15
2023-06-28T09:04:28.449Z,14.27
2023-06-28T09:07:16.385Z,15.55
2023-06-28T09:10:02.296Z,16.13
2023-06-28T09:12:48.950Z,13.40
2023-06-28T09:15:35.447Z,12.40
2023-06-28T09:18:20.998Z,11.20
2023-06-28T09:21:06.231Z,14.55
2023-06-28T09:23:51.468Z,10.15
2023-06-28T09:26:36.764Z,16.30
2023-06-28T09:29:22.141Z,14.55
2023-06-28T09:32:07.707Z,12.55
2023-06-28T09:34:53.319Z,10.70
2023-06-28T09:37:39.708Z,10.52
2023-06-28T09:40:25.047Z,12.68
2023-06-28T09:43:15.023Z,14.63
2023-06-28T09:46:18.197Z,11.77
2023-06-28T09:49:03.565Z,14.38
2023-06-28T09:52:03.419Z,12.05
2023-06-28T09:54:50.642Z,17.52
2023-06-28T09:57:36.306Z,11.80
2023-06-28T10:00:22.028Z,11.15
2023-06-28T10:03:10.077Z,12.80
2023-06-28T10:05:57.075Z,11.95
2023-06-28T10:08:43.374Z,12.60
2023-06-28T10:11:32.273Z,11.95
2023-06-28T10:14:20.218Z,13.13
2023-06-28T10:17:06.799Z,12.18
2023-06-28T10:19:54.010Z,14.10
2023-06-28T10:22:39.676Z,11.90
2023-06-28T10:25:26.910Z,14.25
2023-06-28T10:28:14.378Z,11.82
2023-06-28T10:30:59.670Z,11.18
2023-06-28T10:33:45.834Z,13.10
2023-06-28T10:36:31.003Z,14.13
2023-06-28T10:39:17.306Z,12.77
2023-06-28T10:42:02.920Z,14.63
2023-06-28T10:44:56.242Z,12.60
2023-06-28T10:47:52.485Z,14.23
2023-06-28T10:50:42.487Z,12.77
2023-06-28T10:53:29.735Z,14.00
2023-06-28T10:56:15.156Z,14.40
2023-06-28T10:59:06.162Z,12.18
2023-06-28T11:01:55.399Z,12.75
2023-06-28T11:04:53.429Z,12.75
2023-06-28T11:07:38.724Z,12.55
2023-06-28T11:10:37.501Z,12.35
2023-06-28T11:13:52.060Z,11.88
2023-06-28T11:16:37.569Z,10.23
2023-06-28T11:19:22.666Z,16.27
2023-06-28T11:22:08.303Z,16.83
2023-06-28T11:24:55.562Z,16.55
2023-06-28T11:27:41.970Z,14.43
2023-06-28T11:31:26.111Z,12.75
2023-06-28T11:34:14.926Z,12.38
2023-06-28T11:37:01.956Z,44.85
2023-06-28T11:39:49.207Z,19.50
2023-06-28T11:42:34.381Z,21.25
2023-06-28T11:45:20.609Z,27.35
2023-06-28T11:48:06.670Z,20.42
2023-06-28T11:51:04.528Z,21.20
2023-06-28T11:53:49.725Z,20.10
2023-06-28T11:56:40.868Z,18.02
2023-06-28T11:59:25.782Z,19.33
2023-06-28T12:02:11.934Z,20.02
2023-06-28T12:05:00.777Z,20.73
2023-06-28T12:07:46.593Z,18.25
2023-06-28T12:10:34.602Z,20.80
2023-06-28T12:13:24.026Z,19.27
2023-06-28T12:16:20.106Z,18.83
2023-06-28T12:19:05.346Z,18.08
2023-06-28T12:21:53.653Z,18.17
2023-06-28T12:24:39.480Z,17.95
2023-06-28T12:27:24.749Z,17.25
2023-06-28T12:30:15.571Z,17.02
2023-06-28T12:33:06.159Z,17.88
2023-06-28T12:35:51.741Z,18.20
2023-06-28T12:38:36.948Z,16.42
2023-06-28T12:41:21.872Z,15.38
2023-06-28T12:44:07.293Z,17.45
2023-06-28T12:46:52.808Z,15.57
2023-06-28T12:49:38.413Z,14.55
2023-06-28T12:52:26.060Z,15.07
2023-06-28T12:55:13.533Z,15.98
2023-06-28T12:57:59.146Z,12.25
2023-06-28T13:00:45.002Z,18.50
2023-06-28T13:03:30.256Z,11.38
2023-06-28T13:06:15.814Z,21.45
2023-06-28T13:09:01.034Z,12.60
2023-06-28T13:11:46.560Z,31.48
2023-06-28T13:14:31.769Z,20.75
2023-06-28T13:17:17.003Z,28.60
2023-06-28T13:20:02.012Z,25.67
2023-06-28T13:22:47.424Z,14.07
2023-06-28T13:25:33.139Z,15.80
2023-06-28T13:28:18.453Z,29.42
2023-06-28T13:31:03.928Z,16.65
2023-06-28T13:33:49.348Z,20.45
2023-06-28T13:36:34.687Z,17.83
2023-06-28T13:39:20.085Z,13.13
2023-06-28T13:42:05.837Z,15.65
2023-06-28T13:44:51.361Z,14.85
2023-06-28T13:47:36.554Z,11.02
2023-06-28T13:50:21.941Z,8.40
2023-06-28T13:53:07.391Z,8.52
2023-06-28T13:55:53.021Z,19.17
2023-06-28T13:58:38.892Z,10.65
2023-06-28T14:01:24.513Z,8.13
2023-06-28T14:04:09.482Z,7.13
2023-06-28T14:06:55.007Z,8.93
2023-06-28T14:09:40.313Z,9.38
2023-06-28T14:12:25.788Z,8.65
2023-06-28T14:15:11.706Z,8.02
2023-06-28T14:17:57.995Z,8.95
2023-06-28T14:20:44.162Z,10.18
2023-06-28T14:23:29.500Z,10.52
2023-06-28T14:26:14.966Z,10.77
2023-06-28T14:29:00.237Z,11.30
2023-06-28T14:31:45.657Z,14.85
2023-06-28T14:34:31.041Z,12.00
2023-06-28T14:37:16.904Z,14.20
2023-06-28T14:40:02.487Z,12.77
2023-06-28T14:42:47.860Z,12.52
2023-06-28T14:45:33.395Z,14.50
2023-06-28T14:48:18.727Z,13.38
2023-06-28T14:51:04.629Z,13.05
2023-06-28T14:53:49.765Z,16.08
2023-06-28T14:56:35.080Z,15.38
2023-06-28T14:59:20.557Z,15.50
2023-06-28T15:02:06.253Z,16.65
2023-06-28T15:04:51.232Z,16.02
2023-06-28T15:07:36.814Z,14.20
2023-06-28T15:10:22.149Z,17.00
2023-06-28T15:13:07.747Z,15.23
2023-06-28T15:15:53.133Z,16.33
2023-06-28T15:18:38.494Z,15.95
2023-06-28T15:21:24.166Z,15.60
2023-06-28T15:24:09.411Z,13.57
2023-06-28T15:26:55.943Z,15.98
2023-06-28T15:29:40.775Z,16.73
2023-06-28T15:32:26.297Z,16.20
2023-06-28T15:35:11.542Z,18.85
2023-06-28T15:37:56.909Z,17.05
2023-06-28T15:40:42.759Z,17.00
2023-06-28T15:43:28.593Z,20.23
2023-06-28T15:46:13.725Z,18.67
2023-06-28T15:48:58.817Z,17.77
2023-06-28T15:51:44.071Z,18.13
2023-06-28T15:54:29.222Z,16.98
2023-06-28T15:57:14.816Z,17.60
2023-06-28T15:59:59.931Z,18.80
2023-06-28T16:02:45.628Z,19.52
2023-06-28T16:05:30.964Z,21.23
2023-06-28T16:08:16.403Z,18.40
2023-06-28T16:11:01.687Z,19.92
2023-06-28T16:13:47.079Z,19.20
2023-06-28T16:16:32.491Z,20.00
2023-06-28T16:19:17.833Z,18.77
2023-06-28T16:22:03.326Z,23.00
2023-06-28T16:24:48.685Z,22.67
2023-06-28T16:27:34.114Z,18.60
2023-06-28T16:30:19.319Z,19.92
2023-06-28T16:33:08.536Z,18.95
2023-06-28T16:35:53.577Z,20.85
2023-06-28T16:38:39.194Z,19.77
2023-06-28T16:41:24.575Z,20.70
2023-06-28T16:44:09.922Z,19.52
2023-06-28T16:46:55.329Z,21.92
2023-06-28T16:49:40.777Z,17.60
2023-06-28T16:52:26.050Z,20.45
2023-06-28T16:55:11.499Z,20.52
2023-06-28T16:57:56.946Z,19.52
2023-06-28T17:00:42.470Z,19.08
2023-06-28T17:03:27.976Z,21.30
2023-06-28T17:06:13.349Z,20.05
2023-06-28T17:08:59.526Z,18.67
2023-06-28T17:11:44.977Z,17.25
2023-06-28T17:14:29.926Z,22.45
2023-06-28T17:17:15.590Z,22.42
2023-06-28T17:20:00.999Z,21.73
2023-06-28T17:22:46.230Z,19.70
2023-06-28T17:25:31.547Z,19.60
2023-06-28T17:28:17.166Z,18.10
2023-06-28T17:31:02.535Z,20.85
2023-06-28T17:33:47.915Z,20.42
2023-06-28T17:36:33.231Z,17.55
2023-06-28T17:39:19.231Z,19.67
2023-06-28T17:42:07.707Z,22.17
2023-06-28T17:44:53.105Z,21.65
2023-06-28T17:47:38.389Z,20.80
2023-06-28T17:50:23.912Z,18.23
2023-06-28T17:53:09.450Z,18.23
2023-06-28T17:55:54.938Z,22.58
2023-06-28T17:58:41.353Z,22.67
2023-06-28T18:01:26.654Z,20.77
2023-06-28T18:04:11.977Z,19.25
2023-06-28T18:06:57.542Z,21.10
2023-06-28T18:09:42.744Z,20.13
2023-06-28T18:12:28.073Z,17.30
2023-06-28T18:15:13.439Z,19.00
2023-06-28T18:17:58.630Z,21.38
2023-06-28T18:20:44.292Z,18.35
2023-06-28T18:23:29.778Z,20.02
2023-06-28T18:26:15.287Z,19.75
2023-06-28T18:29:00.694Z,19.13
2023-06-28T18:31:46.106Z,27.30
2023-06-28T18:34:31.542Z,28.05
2023-06-28T18:37:17.026Z,22.90
2023-06-28T18:40:02.523Z,19.83
2023-06-28T18:42:47.956Z,20.50
2023-06-28T18:45:33.474Z,19.08
2023-06-28T18:48:18.939Z,20.98
2023-06-28T18:51:04.422Z,18.50
2023-06-28T18:53:49.717Z,21.48
2023-06-28T18:56:35.123Z,19.95
2023-06-28T18:59:20.617Z,21.13
2023-06-28T19:02:06.511Z,22.98
2023-06-28T19:04:51.904Z,21.70
2023-06-28T19:07:37.321Z,20.05
2023-06-28T19:10:22.479Z,22.27
2023-06-28T19:13:08.022Z,20.27
2023-06-28T19:15:53.276Z,21.90
2023-06-28T19:18:38.629Z,23.85
2023-06-28T19:21:23.976Z,20.00
2023-06-28T19:24:09.256Z,21.10
2023-06-28T19:26:55.546Z,20.30
2023-06-28T19:29:40.798Z,20.33
2023-06-28T19:32:26.057Z,21.55
2023-06-28T19:35:11.534Z,19.55
2023-06-28T19:37:56.935Z,18.75
2023-06-28T19:40:42.550Z,22.13
2023-06-28T19:43:27.813Z,18.55
2023-06-28T19:46:13.326Z,22.20
2023-06-28T19:48:58.658Z,21.60
2023-06-28T19:51:44.110Z,20.80
2023-06-28T19:54:29.523Z,23.48
2023-06-28T19:57:14.769Z,23.02
2023-06-28T20:00:00.242Z,22.40
2023-06-28T20:02:45.777Z,21.20
2023-06-28T20:05:31.102Z,21.60
2023-06-28T20:08:16.215Z,20.73
2023-06-28T20:11:01.528Z,20.83
2023-06-28T20:13:46.778Z,20.98
2023-06-28T20:16:32.421Z,22.20
2023-06-28T20:19:17.880Z,22.33
2023-06-28T20:22:03.194Z,22.65
2023-06-28T20:24:48.517Z,21.23
2023-06-28T20:27:34.636Z,22.33
2023-06-28T20:30:19.786Z,22.90
2023-06-28T20:33:06.706Z,21.35
2023-06-28T20:35:52.690Z,20.40
2023-06-28T20:38:37.803Z,22.77
2023-06-28T20:41:23.240Z,21.55
2023-06-28T20:44:08.690Z,20.98
2023-06-28T20:46:53.900Z,23.30
2023-06-28T20:49:39.289Z,22.67
2023-06-28T20:52:24.974Z,25.70
2023-06-28T20:55:10.077Z,23.90
2023-06-28T20:57:55.522Z,24.55
2023-06-28T21:00:40.944Z,23.42
2023-06-28T21:03:26.403Z,23.83
2023-06-28T21:06:11.677Z,24.33
2023-06-28T21:08:56.893Z,21.85
2023-06-28T21:11:41.902Z,22.35
2023-06-28T21:14:27.364Z,22.65
2023-06-28T21:17:12.822Z,20.13
2023-06-28T21:19:58.057Z,19.52
2023-06-28T21:22:43.326Z,24.38
2023-06-28T21:25:28.840Z,21.70
2023-06-28T21:28:14.752Z,22.88
2023-06-28T21:31:00.187Z,23.65
2023-06-28T21:33:45.542Z,22.10
2023-06-28T21:36:30.941Z,25.33
2023-06-28T21:39:16.431Z,22.50
2023-06-28T21:42:01.694Z,23.10
2023-06-28T21:44:47.254Z,23.48
2023-06-28T21:47:32.762Z,22.70
2023-06-28T21:50:18.033Z,22.08
2023-06-28T21:53:03.610Z,22.38
2023-06-28T21:55:49.063Z,24.08
2023-06-28T21:58:34.231Z,21.33
2023-06-28T22:01:19.601Z,23.58
2023-06-28T22:04:05.161Z,23.95
2023-06-28T22:07:05.263Z,23.25
2023-06-28T22:09:51.688Z,22.83
2023-06-28T22:12:38.677Z,23.20
2023-06-28T22:15:27.420Z,22.08
2023-06-28T22:18:12.602Z,22.40
2023-06-28T22:20:58.214Z,25.83
2023-06-28T22:23:43.444Z,24.88
2023-06-28T22:26:28.799Z,22.85
2023-06-28T22:29:14.289Z,23.55
2023-06-28T22:31:59.593Z,23.83
2023-06-28T22:34:46.401Z,23.40
2023-06-28T22:37:31.437Z,21.52
2023-06-28T22:40:16.735Z,25.35
2023-06-28T22:43:02.217Z,22.48
2023-06-28T22:45:50.557Z,26.70
2023-06-28T22:48:35.946Z,29.02
2023-06-28T22:51:21.026Z,26.23
2023-06-28T22:54:10.500Z,27.15
2023-06-28T22:56:56.241Z,24.05
2023-06-28T22:59:41.653Z,26.10
2023-06-28T23:02:27.054Z,24.58
2023-06-28T23:05:12.509Z,28.30
2023-06-28T23:07:57.815Z,27.08
2023-06-28T23:10:43.687Z,27.08
2023-06-28T23:13:29.121Z,27.73
2023-06-28T23:16:14.447Z,29.45
2023-06-28T23:19:00.891Z,26.83
2023-06-28T23:21:46.459Z,29.50
2023-06-28T23:24:31.768Z,27.15
2023-06-28T23:27:17.134Z,28.83
2023-06-28T23:30:02.770Z,27.42
2023-06-28T23:32:47.867Z,23.50
2023-06-28T23:35:35.051Z,28.13
2023-06-28T23:38:20.389Z,25.33
2023-06-28T23:41:06.780Z,29.33
2023-06-28T23:43:52.211Z,27.58
2023-06-28T23:46:37.664Z,27.48
2023-06-28T23:49:23.099Z,27.60
2023-06-28T23:52:09.045Z,29.27
2023-06-28T23:54:54.306Z,27.55
2023-06-28T23:57:39.231Z,27.15
